sensor_id;sensor_type;location;lat;lon;timestamp;temperature;humidity
26103;DHT22;69760;49.380;8.998;2023-05-07T00:07:32;21.40;78.70
26103;DHT22;69760;49.380;8.998;2023-05-07T00:09:58;21.40;78.70
26103;DHT22;69760;49.380;8.998;2023-05-07T00:12:23;21.40;78.70
26103;DHT22;69760;49.380;8.998;2023-05-07T00:14:49;21.40;78.70
26103;DHT22;69760;49.380;8.998;2023-05-07T00:17:14;21.40;78.70
26103;DHT22;69760;49.380;8.998;2023-05-07T00:19:40;21.40;78.80
26103;DHT22;69760;49.380;8.998;2023-05-07T00:53:10;21.40;78.70
26103;DHT22;69760;49.380;8.998;2023-05-07T00:55:36;21.40;78.70
26103;DHT22;69760;49.380;8.998;2023-05-07T00:58:02;21.40;78.70
26103;DHT22;69760;49.380;8.998;2023-05-07T01:00:28;21.40;78.70
26103;DHT22;69760;49.380;8.998;2023-05-07T01:13:15;21.40;78.70
26103;DHT22;69760;49.380;8.998;2023-05-07T01:15:41;21.40;78.70
26103;DHT22;69760;49.380;8.998;2023-05-07T01:18:07;21.30;78.60
26103;DHT22;69760;49.380;8.998;2023-05-07T01:20:33;21.30;78.60
26103;DHT22;69760;49.380;8.998;2023-05-07T03:50:34;21.20;78.60
26103;DHT22;69760;49.380;8.998;2023-05-07T03:52:59;21.30;78.70
26103;DHT22;69760;49.380;8.998;2023-05-07T03:55:25;21.20;78.60
26103;DHT22;69760;49.380;8.998;2023-05-07T03:57:50;21.20;78.60
26103;DHT22;69760;49.380;8.998;2023-05-07T04:00:16;21.20;78.60
26103;DHT22;69760;49.380;8.998;2023-05-07T04:15:39;21.30;78.80
26103;DHT22;69760;49.380;8.998;2023-05-07T04:18:04;21.30;78.80
26103;DHT22;69760;49.380;8.998;2023-05-07T04:20:30;21.30;78.80
26103;DHT22;69760;49.380;8.998;2023-05-07T04:35:52;21.30;78.80
26103;DHT22;69760;49.380;8.998;2023-05-07T04:38:18;21.30;78.80
26103;DHT22;69760;49.380;8.998;2023-05-07T04:40:44;21.30;78.80
26103;DHT22;69760;49.380;8.998;2023-05-07T04:43:10;21.30;78.80
26103;DHT22;69760;49.380;8.998;2023-05-07T04:45:36;21.20;78.80
26103;DHT22;69760;49.380;8.998;2023-05-07T04:48:02;21.20;78.80
26103;DHT22;69760;49.380;8.998;2023-05-07T04:50:27;21.20;78.90
26103;DHT22;69760;49.380;8.998;2023-05-07T05:00:39;21.30;79.00
26103;DHT22;69760;49.380;8.998;2023-05-07T06:06:02;21.30;78.70
26103;DHT22;69760;49.380;8.998;2023-05-07T06:08:31;21.30;78.70
26103;DHT22;69760;49.380;8.998;2023-05-07T06:10:56;21.30;78.70
26103;DHT22;69760;49.380;8.998;2023-05-07T06:18:59;21.30;78.70
26103;DHT22;69760;49.380;8.998;2023-05-07T06:21:25;21.30;78.70
26103;DHT22;69760;49.380;8.998;2023-05-07T06:23:50;21.40;78.70
26103;DHT22;69760;49.380;8.998;2023-05-07T06:26:17;21.40;78.70
26103;DHT22;69760;49.380;8.998;2023-05-07T06:28:43;21.40;78.70
26103;DHT22;69760;49.380;8.998;2023-05-07T06:31:15;21.40;78.70
26103;DHT22;69760;49.380;8.998;2023-05-07T06:33:41;21.40;78.70
26103;DHT22;69760;49.380;8.998;2023-05-07T06:36:07;21.40;78.70
26103;DHT22;69760;49.380;8.998;2023-05-07T06:38:33;21.40;78.80
26103;DHT22;69760;49.380;8.998;2023-05-07T06:40:58;21.40;78.80
26103;DHT22;69760;49.380;8.998;2023-05-07T08:06:13;22.10;78.50
26103;DHT22;69760;49.380;8.998;2023-05-07T08:15:20;22.30;77.40
26103;DHT22;69760;49.380;8.998;2023-05-07T08:17:45;22.40;78.00
26103;DHT22;69760;49.380;8.998;2023-05-07T08:20:11;22.30;77.90
26103;DHT22;69760;49.380;8.998;2023-05-07T08:22:36;22.30;77.80
26103;DHT22;69760;49.380;8.998;2023-05-07T08:25:02;22.30;77.80
26103;DHT22;69760;49.380;8.998;2023-05-07T08:27:28;22.20;77.70
26103;DHT22;69760;49.380;8.998;2023-05-07T08:29:54;22.20;77.80
26103;DHT22;69760;49.380;8.998;2023-05-07T08:32:20;22.10;78.00
26103;DHT22;69760;49.380;8.998;2023-05-07T08:34:46;22.10;78.10
26103;DHT22;69760;49.380;8.998;2023-05-07T08:37:12;22.10;78.20
26103;DHT22;69760;49.380;8.998;2023-05-07T08:39:37;22.00;78.40
26103;DHT22;69760;49.380;8.998;2023-05-07T08:42:04;22.00;78.50
26103;DHT22;69760;49.380;8.998;2023-05-07T08:44:33;22.00;78.40
26103;DHT22;69760;49.380;8.998;2023-05-07T08:47:01;22.00;78.40
26103;DHT22;69760;49.380;8.998;2023-05-07T08:49:28;22.00;78.40
26103;DHT22;69760;49.380;8.998;2023-05-07T08:51:53;22.00;78.40
26103;DHT22;69760;49.380;8.998;2023-05-07T08:54:20;22.00;78.20
26103;DHT22;69760;49.380;8.998;2023-05-07T08:56:46;21.90;78.10
26103;DHT22;69760;49.380;8.998;2023-05-07T08:59:12;22.00;78.20
26103;DHT22;69760;49.380;8.998;2023-05-07T09:01:37;22.00;78.10
26103;DHT22;69760;49.380;8.998;2023-05-07T09:04:04;21.90;78.00
26103;DHT22;69760;49.380;8.998;2023-05-07T09:06:29;21.90;78.00
26103;DHT22;69760;49.380;8.998;2023-05-07T09:08:55;21.90;78.00
26103;DHT22;69760;49.380;8.998;2023-05-07T09:11:22;22.00;78.10
26103;DHT22;69760;49.380;8.998;2023-05-07T09:13:49;21.90;78.10
26103;DHT22;69760;49.380;8.998;2023-05-07T09:16:15;21.90;78.00
26103;DHT22;69760;49.380;8.998;2023-05-07T09:18:42;21.90;78.00
26103;DHT22;69760;49.380;8.998;2023-05-07T09:21:14;21.90;78.00
26103;DHT22;69760;49.380;8.998;2023-05-07T09:23:40;21.90;78.10
26103;DHT22;69760;49.380;8.998;2023-05-07T09:26:06;21.90;78.10
26103;DHT22;69760;49.380;8.998;2023-05-07T09:28:41;22.00;78.00
26103;DHT22;69760;49.380;8.998;2023-05-07T09:31:07;22.00;78.00
26103;DHT22;69760;49.380;8.998;2023-05-07T09:33:33;22.00;77.80
26103;DHT22;69760;49.380;8.998;2023-05-07T09:36:02;22.00;77.70
26103;DHT22;69760;49.380;8.998;2023-05-07T09:38:28;22.00;77.70
26103;DHT22;69760;49.380;8.998;2023-05-07T09:41:08;22.00;77.70
26103;DHT22;69760;49.380;8.998;2023-05-07T09:43:35;22.00;77.70
26103;DHT22;69760;49.380;8.998;2023-05-07T09:46:11;22.10;77.70
26103;DHT22;69760;49.380;8.998;2023-05-07T09:48:38;22.10;77.70
26103;DHT22;69760;49.380;8.998;2023-05-07T09:53:38;22.10;77.60
26103;DHT22;69760;49.380;8.998;2023-05-07T09:56:04;22.10;77.70
26103;DHT22;69760;49.380;8.998;2023-05-07T09:58:32;22.10;77.60
26103;DHT22;69760;49.380;8.998;2023-05-07T10:00:58;22.10;77.60
26103;DHT22;69760;49.380;8.998;2023-05-07T10:03:27;22.10;77.60
26103;DHT22;69760;49.380;8.998;2023-05-07T10:05:54;22.10;77.60
26103;DHT22;69760;49.380;8.998;2023-05-07T10:08:20;22.10;77.70
26103;DHT22;69760;49.380;8.998;2023-05-07T10:10:46;22.10;77.70
26103;DHT22;69760;49.380;8.998;2023-05-07T10:13:12;22.20;77.90
26103;DHT22;69760;49.380;8.998;2023-05-07T10:15:38;22.20;78.00
26103;DHT22;69760;49.380;8.998;2023-05-07T10:18:06;22.20;78.00
26103;DHT22;69760;49.380;8.998;2023-05-07T10:20:33;22.20;78.10
26103;DHT22;69760;49.380;8.998;2023-05-07T10:23:04;22.20;78.20
26103;DHT22;69760;49.380;8.998;2023-05-07T10:25:31;22.20;78.10
26103;DHT22;69760;49.380;8.998;2023-05-07T10:28:06;22.20;78.00
26103;DHT22;69760;49.380;8.998;2023-05-07T10:32:59;22.20;78.00
26103;DHT22;69760;49.380;8.998;2023-05-07T10:35:32;22.30;77.90
26103;DHT22;69760;49.380;8.998;2023-05-07T10:38:01;22.30;78.50
26103;DHT22;69760;49.380;8.998;2023-05-07T10:40:27;22.20;77.40
26103;DHT22;69760;49.380;8.998;2023-05-07T10:43:00;22.30;77.30
26103;DHT22;69760;49.380;8.998;2023-05-07T10:45:26;22.20;77.10
26103;DHT22;69760;49.380;8.998;2023-05-07T10:51:21;22.30;77.10
26103;DHT22;69760;49.380;8.998;2023-05-07T10:53:47;22.30;77.00
26103;DHT22;69760;49.380;8.998;2023-05-07T10:58:44;22.30;77.10
26103;DHT22;69760;49.380;8.998;2023-05-07T11:01:10;22.30;77.00
26103;DHT22;69760;49.380;8.998;2023-05-07T11:04:13;22.30;77.00
26103;DHT22;69760;49.380;8.998;2023-05-07T11:06:40;22.30;77.10
26103;DHT22;69760;49.380;8.998;2023-05-07T11:09:05;22.30;77.20
26103;DHT22;69760;49.380;8.998;2023-05-07T11:11:47;22.30;77.30
26103;DHT22;69760;49.380;8.998;2023-05-07T11:17:11;22.30;77.30
26103;DHT22;69760;49.380;8.998;2023-05-07T11:19:56;22.30;77.30
26103;DHT22;69760;49.380;8.998;2023-05-07T11:24:59;22.30;77.50
26103;DHT22;69760;49.380;8.998;2023-05-07T11:27:26;22.30;77.60
26103;DHT22;69760;49.380;8.998;2023-05-07T11:29:52;22.20;77.60
26103;DHT22;69760;49.380;8.998;2023-05-07T11:32:31;22.20;77.60
26103;DHT22;69760;49.380;8.998;2023-05-07T11:34:59;22.20;77.70
26103;DHT22;69760;49.380;8.998;2023-05-07T11:37:26;22.20;77.80
26103;DHT22;69760;49.380;8.998;2023-05-07T11:40:07;22.20;77.80
26103;DHT22;69760;49.380;8.998;2023-05-07T11:42:38;22.20;77.90
26103;DHT22;69760;49.380;8.998;2023-05-07T11:45:05;22.20;78.00
26103;DHT22;69760;49.380;8.998;2023-05-07T11:47:31;22.20;78.00
26103;DHT22;69760;49.380;8.998;2023-05-07T11:49:57;22.20;78.00
26103;DHT22;69760;49.380;8.998;2023-05-07T11:52:27;22.20;78.00
26103;DHT22;69760;49.380;8.998;2023-05-07T11:54:54;22.20;78.10
26103;DHT22;69760;49.380;8.998;2023-05-07T11:57:21;22.10;78.00
26103;DHT22;69760;49.380;8.998;2023-05-07T11:59:46;22.20;78.10
26103;DHT22;69760;49.380;8.998;2023-05-07T12:02:16;22.10;78.00
26103;DHT22;69760;49.380;8.998;2023-05-07T12:04:42;22.10;78.10
26103;DHT22;69760;49.380;8.998;2023-05-07T12:07:14;22.10;78.10
26103;DHT22;69760;49.380;8.998;2023-05-07T12:09:44;22.10;78.10
26103;DHT22;69760;49.380;8.998;2023-05-07T12:12:11;22.10;78.90
26103;DHT22;69760;49.380;8.998;2023-05-07T12:14:44;22.10;78.10
26103;DHT22;69760;49.380;8.998;2023-05-07T12:17:12;22.10;78.10
26103;DHT22;69760;49.380;8.998;2023-05-07T12:19:39;22.10;78.10
26103;DHT22;69760;49.380;8.998;2023-05-07T12:22:10;22.10;78.10
26103;DHT22;69760;49.380;8.998;2023-05-07T12:24:46;22.10;78.20
26103;DHT22;69760;49.380;8.998;2023-05-07T12:27:12;22.10;78.20
26103;DHT22;69760;49.380;8.998;2023-05-07T12:29:38;22.10;78.20
26103;DHT22;69760;49.380;8.998;2023-05-07T12:32:16;22.10;78.20
26103;DHT22;69760;49.380;8.998;2023-05-07T12:34:42;22.10;78.20
26103;DHT22;69760;49.380;8.998;2023-05-07T12:37:08;22.10;78.20
26103;DHT22;69760;49.380;8.998;2023-05-07T12:39:34;22.10;78.20
26103;DHT22;69760;49.380;8.998;2023-05-07T12:41:59;22.10;78.20
26103;DHT22;69760;49.380;8.998;2023-05-07T12:44:29;22.10;78.20
26103;DHT22;69760;49.380;8.998;2023-05-07T12:46:55;22.10;78.20
26103;DHT22;69760;49.380;8.998;2023-05-07T12:49:21;22.10;78.20
26103;DHT22;69760;49.380;8.998;2023-05-07T12:51:47;22.10;78.20
26103;DHT22;69760;49.380;8.998;2023-05-07T12:54:26;22.10;78.10
26103;DHT22;69760;49.380;8.998;2023-05-07T12:57:00;22.10;78.20
26103;DHT22;69760;49.380;8.998;2023-05-07T12:59:40;22.10;78.10
26103;DHT22;69760;49.380;8.998;2023-05-07T13:02:07;22.10;78.10
26103;DHT22;69760;49.380;8.998;2023-05-07T13:04:33;22.10;78.10
26103;DHT22;69760;49.380;8.998;2023-05-07T13:06:59;22.10;78.20
26103;DHT22;69760;49.380;8.998;2023-05-07T13:09:25;22.10;78.10
26103;DHT22;69760;49.380;8.998;2023-05-07T13:11:51;22.10;78.10
26103;DHT22;69760;49.380;8.998;2023-05-07T13:14:16;22.10;78.10
26103;DHT22;69760;49.380;8.998;2023-05-07T13:16:42;22.10;78.10
26103;DHT22;69760;49.380;8.998;2023-05-07T13:19:08;22.10;78.10
26103;DHT22;69760;49.380;8.998;2023-05-07T13:21:33;22.10;78.10
26103;DHT22;69760;49.380;8.998;2023-05-07T13:23:59;22.10;78.10
26103;DHT22;69760;49.380;8.998;2023-05-07T13:26:25;22.10;78.10
26103;DHT22;69760;49.380;8.998;2023-05-07T13:28:52;22.10;78.10
26103;DHT22;69760;49.380;8.998;2023-05-07T13:31:17;22.10;78.10
26103;DHT22;69760;49.380;8.998;2023-05-07T13:33:43;22.10;78.10
26103;DHT22;69760;49.380;8.998;2023-05-07T13:36:09;22.10;78.10
26103;DHT22;69760;49.380;8.998;2023-05-07T13:38:34;22.10;78.10
26103;DHT22;69760;49.380;8.998;2023-05-07T13:41:00;22.10;78.10
26103;DHT22;69760;49.380;8.998;2023-05-07T13:43:26;22.10;78.10
26103;DHT22;69760;49.380;8.998;2023-05-07T13:45:51;22.10;78.10
26103;DHT22;69760;49.380;8.998;2023-05-07T13:48:17;22.10;78.10
26103;DHT22;69760;49.380;8.998;2023-05-07T13:50:42;22.10;78.10
26103;DHT22;69760;49.380;8.998;2023-05-07T13:53:08;22.10;78.10
26103;DHT22;69760;49.380;8.998;2023-05-07T13:55:34;22.10;78.10
26103;DHT22;69760;49.380;8.998;2023-05-07T13:58:01;22.10;78.10
26103;DHT22;69760;49.380;8.998;2023-05-07T14:00:28;22.10;78.10
26103;DHT22;69760;49.380;8.998;2023-05-07T14:02:55;22.10;78.10
26103;DHT22;69760;49.380;8.998;2023-05-07T14:05:21;22.00;78.00
26103;DHT22;69760;49.380;8.998;2023-05-07T14:07:51;22.10;78.10
26103;DHT22;69760;49.380;8.998;2023-05-07T14:10:17;22.10;78.10
26103;DHT22;69760;49.380;8.998;2023-05-07T14:12:44;22.00;78.10
26103;DHT22;69760;49.380;8.998;2023-05-07T14:15:10;22.00;78.00
26103;DHT22;69760;49.380;8.998;2023-05-07T14:17:36;22.10;78.10
26103;DHT22;69760;49.380;8.998;2023-05-07T14:20:02;22.00;78.00
26103;DHT22;69760;49.380;8.998;2023-05-07T14:22:27;22.10;78.00
26103;DHT22;69760;49.380;8.998;2023-05-07T14:24:53;22.10;78.10
26103;DHT22;69760;49.380;8.998;2023-05-07T14:27:18;22.00;78.00
26103;DHT22;69760;49.380;8.998;2023-05-07T14:29:44;22.00;78.00
26103;DHT22;69760;49.380;8.998;2023-05-07T14:32:11;22.00;78.00
26103;DHT22;69760;49.380;8.998;2023-05-07T14:34:36;22.10;78.00
26103;DHT22;69760;49.380;8.998;2023-05-07T14:37:02;22.10;78.00
26103;DHT22;69760;49.380;8.998;2023-05-07T14:39:27;22.10;78.00
26103;DHT22;69760;49.380;8.998;2023-05-07T14:41:53;22.10;78.00
26103;DHT22;69760;49.380;8.998;2023-05-07T14:44:20;22.10;78.00
26103;DHT22;69760;49.380;8.998;2023-05-07T14:46:46;22.10;78.00
26103;DHT22;69760;49.380;8.998;2023-05-07T14:49:11;22.10;78.00
26103;DHT22;69760;49.380;8.998;2023-05-07T14:51:45;22.10;77.90
26103;DHT22;69760;49.380;8.998;2023-05-07T14:54:11;22.10;77.90
26103;DHT22;69760;49.380;8.998;2023-05-07T14:56:37;22.10;78.00
26103;DHT22;69760;49.380;8.998;2023-05-07T14:59:05;22.10;78.00
26103;DHT22;69760;49.380;8.998;2023-05-07T15:01:31;22.10;78.00
26103;DHT22;69760;49.380;8.998;2023-05-07T15:15:01;22.10;77.70
26103;DHT22;69760;49.380;8.998;2023-05-07T15:17:27;22.30;78.30
26103;DHT22;69760;49.380;8.998;2023-05-07T15:19:52;22.20;78.20
26103;DHT22;69760;49.380;8.998;2023-05-07T15:22:18;22.10;78.20
26103;DHT22;69760;49.380;8.998;2023-05-07T15:24:44;22.10;78.20
26103;DHT22;69760;49.380;8.998;2023-05-07T15:27:10;22.10;78.40
26103;DHT22;69760;49.380;8.998;2023-05-07T15:29:35;22.00;78.40
26103;DHT22;69760;49.380;8.998;2023-05-07T15:32:01;22.00;78.50
26103;DHT22;69760;49.380;8.998;2023-05-07T15:34:26;22.00;78.60
26103;DHT22;69760;49.380;8.998;2023-05-07T15:36:52;21.90;78.70
26103;DHT22;69760;49.380;8.998;2023-05-07T15:39:18;21.90;78.90
26103;DHT22;69760;49.380;8.998;2023-05-07T15:41:43;21.90;79.00
26103;DHT22;69760;49.380;8.998;2023-05-07T15:44:18;21.90;79.10
26103;DHT22;69760;49.380;8.998;2023-05-07T15:46:44;21.90;79.30
26103;DHT22;69760;49.380;8.998;2023-05-07T15:49:09;21.80;79.30
26103;DHT22;69760;49.380;8.998;2023-05-07T15:51:35;21.80;79.40
26103;DHT22;69760;49.380;8.998;2023-05-07T15:54:01;21.80;79.50
26103;DHT22;69760;49.380;8.998;2023-05-07T15:56:26;21.80;79.60
26103;DHT22;69760;49.380;8.998;2023-05-07T15:58:52;21.80;79.70
26103;DHT22;69760;49.380;8.998;2023-05-07T16:01:18;21.80;79.80
26103;DHT22;69760;49.380;8.998;2023-05-07T16:03:44;21.80;79.90
26103;DHT22;69760;49.380;8.998;2023-05-07T16:06:09;21.80;80.00
26103;DHT22;69760;49.380;8.998;2023-05-07T16:08:38;21.80;80.00
26103;DHT22;69760;49.380;8.998;2023-05-07T16:11:04;21.70;80.10
26103;DHT22;69760;49.380;8.998;2023-05-07T16:13:30;21.70;80.10
26103;DHT22;69760;49.380;8.998;2023-05-07T16:15:56;21.70;80.20
26103;DHT22;69760;49.380;8.998;2023-05-07T16:18:25;21.70;80.30
26103;DHT22;69760;49.380;8.998;2023-05-07T16:20:51;21.70;80.40
26103;DHT22;69760;49.380;8.998;2023-05-07T16:23:17;21.70;80.50
26103;DHT22;69760;49.380;8.998;2023-05-07T16:25:42;21.60;80.50
26103;DHT22;69760;49.380;8.998;2023-05-07T16:28:08;21.70;80.60
26103;DHT22;69760;49.380;8.998;2023-05-07T16:30:33;21.70;80.70
26103;DHT22;69760;49.380;8.998;2023-05-07T16:46:18;21.70;80.50
26103;DHT22;69760;49.380;8.998;2023-05-07T16:48:44;22.80;78.50
26103;DHT22;69760;49.380;8.998;2023-05-07T16:51:09;22.80;78.10
26103;DHT22;69760;49.380;8.998;2023-05-07T16:53:35;22.90;77.80
26103;DHT22;69760;49.380;8.998;2023-05-07T16:56:04;22.90;77.60
26103;DHT22;69760;49.380;8.998;2023-05-07T16:58:30;22.90;77.50
26103;DHT22;69760;49.380;8.998;2023-05-07T17:00:57;22.90;78.30
26103;DHT22;69760;49.380;8.998;2023-05-07T17:03:23;22.90;77.50
26103;DHT22;69760;49.380;8.998;2023-05-07T17:05:49;22.90;77.40
26103;DHT22;69760;49.380;8.998;2023-05-07T17:08:14;22.90;77.40
26103;DHT22;69760;49.380;8.998;2023-05-07T17:10:40;22.90;77.40
26103;DHT22;69760;49.380;8.998;2023-05-07T17:13:06;22.90;77.40
26103;DHT22;69760;49.380;8.998;2023-05-07T17:15:31;22.80;77.40
26103;DHT22;69760;49.380;8.998;2023-05-07T17:17:57;22.80;77.40
26103;DHT22;69760;49.380;8.998;2023-05-07T17:20:22;22.80;77.40
26103;DHT22;69760;49.380;8.998;2023-05-07T17:22:49;22.80;77.50
26103;DHT22;69760;49.380;8.998;2023-05-07T17:25:15;22.80;77.50
26103;DHT22;69760;49.380;8.998;2023-05-07T17:27:40;22.80;77.60
26103;DHT22;69760;49.380;8.998;2023-05-07T17:30:06;22.80;77.60
26103;DHT22;69760;49.380;8.998;2023-05-07T17:32:32;22.80;77.70
26103;DHT22;69760;49.380;8.998;2023-05-07T17:34:59;22.80;77.70
26103;DHT22;69760;49.380;8.998;2023-05-07T17:37:25;22.80;77.60
26103;DHT22;69760;49.380;8.998;2023-05-07T17:39:51;22.70;77.60
26103;DHT22;69760;49.380;8.998;2023-05-07T17:42:17;22.70;77.50
26103;DHT22;69760;49.380;8.998;2023-05-07T17:44:43;22.80;77.60
26103;DHT22;69760;49.380;8.998;2023-05-07T17:47:08;22.70;77.50
26103;DHT22;69760;49.380;8.998;2023-05-07T17:49:34;22.70;77.60
26103;DHT22;69760;49.380;8.998;2023-05-07T17:52:01;22.70;77.60
26103;DHT22;69760;49.380;8.998;2023-05-07T17:54:27;22.70;77.80
26103;DHT22;69760;49.380;8.998;2023-05-07T17:56:52;22.70;77.70
26103;DHT22;69760;49.380;8.998;2023-05-07T17:59:18;22.70;77.80
26103;DHT22;69760;49.380;8.998;2023-05-07T18:01:44;22.70;77.80
26103;DHT22;69760;49.380;8.998;2023-05-07T18:04:09;22.60;77.80
26103;DHT22;69760;49.380;8.998;2023-05-07T18:06:35;22.60;77.80
26103;DHT22;69760;49.380;8.998;2023-05-07T18:09:00;22.60;77.90
26103;DHT22;69760;49.380;8.998;2023-05-07T18:11:27;22.60;77.90
26103;DHT22;69760;49.380;8.998;2023-05-07T18:13:53;22.60;78.00
26103;DHT22;69760;49.380;8.998;2023-05-07T18:16:18;22.60;78.00
26103;DHT22;69760;49.380;8.998;2023-05-07T18:18:44;22.60;78.10
26103;DHT22;69760;49.380;8.998;2023-05-07T18:21:11;22.60;78.00
26103;DHT22;69760;49.380;8.998;2023-05-07T18:23:44;22.60;78.20
26103;DHT22;69760;49.380;8.998;2023-05-07T18:26:09;22.60;78.20
26103;DHT22;69760;49.380;8.998;2023-05-07T18:28:35;22.60;78.20
26103;DHT22;69760;49.380;8.998;2023-05-07T18:31:01;22.60;78.20
26103;DHT22;69760;49.380;8.998;2023-05-07T18:33:26;22.60;78.30
26103;DHT22;69760;49.380;8.998;2023-05-07T18:35:53;22.60;78.20
26103;DHT22;69760;49.380;8.998;2023-05-07T18:38:18;22.60;78.30
26103;DHT22;69760;49.380;8.998;2023-05-07T18:40:44;22.60;78.30
26103;DHT22;69760;49.380;8.998;2023-05-07T18:43:10;22.60;78.30
26103;DHT22;69760;49.380;8.998;2023-05-07T18:45:35;22.60;78.30
26103;DHT22;69760;49.380;8.998;2023-05-07T18:48:03;22.60;78.30
26103;DHT22;69760;49.380;8.998;2023-05-07T18:50:29;22.60;78.40
26103;DHT22;69760;49.380;8.998;2023-05-07T18:52:55;22.60;78.40
26103;DHT22;69760;49.380;8.998;2023-05-07T18:55:21;22.60;78.40
26103;DHT22;69760;49.380;8.998;2023-05-07T18:57:47;22.50;78.30
26103;DHT22;69760;49.380;8.998;2023-05-07T19:00:13;22.50;78.40
26103;DHT22;69760;49.380;8.998;2023-05-07T19:02:39;22.50;78.40
26103;DHT22;69760;49.380;8.998;2023-05-07T19:05:05;22.50;78.30
26103;DHT22;69760;49.380;8.998;2023-05-07T19:07:31;22.50;78.40
26103;DHT22;69760;49.380;8.998;2023-05-07T19:09:57;22.50;78.30
26103;DHT22;69760;49.380;8.998;2023-05-07T19:12:22;22.50;78.30
26103;DHT22;69760;49.380;8.998;2023-05-07T19:14:48;22.50;78.30
26103;DHT22;69760;49.380;8.998;2023-05-07T19:17:14;22.50;78.30
26103;DHT22;69760;49.380;8.998;2023-05-07T19:19:43;22.50;78.30
26103;DHT22;69760;49.380;8.998;2023-05-07T19:22:15;22.50;78.30
26103;DHT22;69760;49.380;8.998;2023-05-07T19:24:41;22.50;78.30
26103;DHT22;69760;49.380;8.998;2023-05-07T19:27:06;22.50;78.30
26103;DHT22;69760;49.380;8.998;2023-05-07T19:29:33;22.50;78.30
26103;DHT22;69760;49.380;8.998;2023-05-07T19:31:59;22.50;78.30
26103;DHT22;69760;49.380;8.998;2023-05-07T19:34:24;22.50;78.30
26103;DHT22;69760;49.380;8.998;2023-05-07T19:36:50;22.50;78.30
26103;DHT22;69760;49.380;8.998;2023-05-07T19:39:16;22.50;78.40
26103;DHT22;69760;49.380;8.998;2023-05-07T19:41:41;22.50;78.40
26103;DHT22;69760;49.380;8.998;2023-05-07T19:44:07;22.50;78.30
26103;DHT22;69760;49.380;8.998;2023-05-07T19:46:33;22.50;79.10
26103;DHT22;69760;49.380;8.998;2023-05-07T19:48:58;22.50;78.40
26103;DHT22;69760;49.380;8.998;2023-05-07T19:51:24;22.50;78.40
26103;DHT22;69760;49.380;8.998;2023-05-07T19:53:50;22.50;78.40
26103;DHT22;69760;49.380;8.998;2023-05-07T19:56:15;22.50;78.40
26103;DHT22;69760;49.380;8.998;2023-05-07T19:58:41;22.50;78.40
26103;DHT22;69760;49.380;8.998;2023-05-07T20:01:06;22.50;78.40
26103;DHT22;69760;49.380;8.998;2023-05-07T20:03:32;22.40;78.40
26103;DHT22;69760;49.380;8.998;2023-05-07T20:05:59;22.50;78.60
26103;DHT22;69760;49.380;8.998;2023-05-07T20:08:24;22.40;78.60
26103;DHT22;69760;49.380;8.998;2023-05-07T20:10:51;22.40;78.80
26103;DHT22;69760;49.380;8.998;2023-05-07T20:13:17;22.40;78.90
26103;DHT22;69760;49.380;8.998;2023-05-07T20:15:43;22.40;79.00
26103;DHT22;69760;49.380;8.998;2023-05-07T20:18:09;22.40;79.10
26103;DHT22;69760;49.380;8.998;2023-05-07T20:20:34;22.40;79.20
26103;DHT22;69760;49.380;8.998;2023-05-07T20:23:00;22.40;79.30
26103;DHT22;69760;49.380;8.998;2023-05-07T20:25:26;22.40;79.40
26103;DHT22;69760;49.380;8.998;2023-05-07T20:27:52;22.40;79.50
26103;DHT22;69760;49.380;8.998;2023-05-07T20:30:17;22.40;79.60
26103;DHT22;69760;49.380;8.998;2023-05-07T20:32:45;22.40;79.60
26103;DHT22;69760;49.380;8.998;2023-05-07T20:35:10;22.40;80.50
26103;DHT22;69760;49.380;8.998;2023-05-07T20:37:37;22.40;79.80
26103;DHT22;69760;49.380;8.998;2023-05-07T20:40:04;22.40;79.80
